sensor_id;sensor_type;location;lat;lon;timestamp;P1;durP1;ratioP1;P2;durP2;ratioP2
76373;SDS011;65197;50.164;8.012;2023-09-18T00:00:19;4.47;;;3.35;;
76373;SDS011;65197;50.164;8.012;2023-09-18T00:02:46;5.05;;;3.38;;
76373;SDS011;65197;50.164;8.012;2023-09-18T00:05:12;5.53;;;3.35;;
76373;SDS011;65197;50.164;8.012;2023-09-18T00:07:39;5.78;;;3.30;;
76373;SDS011;65197;50.164;8.012;2023-09-18T00:10:04;5.03;;;3.03;;
76373;SDS011;65197;50.164;8.012;2023-09-18T00:12:30;5.47;;;3.50;;
76373;SDS011;65197;50.164;8.012;2023-09-18T00:14:55;5.43;;;3.03;;
76373;SDS011;65197;50.164;8.012;2023-09-18T00:17:22;5.03;;;3.28;;
76373;SDS011;65197;50.164;8.012;2023-09-18T00:19:48;6.78;;;3.05;;
76373;SDS011;65197;50.164;8.012;2023-09-18T00:22:14;5.25;;;3.95;;
76373;SDS011;65197;50.164;8.012;2023-09-18T00:24:39;4.30;;;2.92;;
76373;SDS011;65197;50.164;8.012;2023-09-18T00:27:04;5.05;;;3.40;;
76373;SDS011;65197;50.164;8.012;2023-09-18T00:29:30;5.90;;;3.20;;
76373;SDS011;65197;50.164;8.012;2023-09-18T00:31:55;5.70;;;3.47;;
76373;SDS011;65197;50.164;8.012;2023-09-18T00:34:21;5.70;;;3.45;;
76373;SDS011;65197;50.164;8.012;2023-09-18T00:36:46;6.00;;;3.30;;
76373;SDS011;65197;50.164;8.012;2023-09-18T00:39:11;7.22;;;3.40;;
76373;SDS011;65197;50.164;8.012;2023-09-18T00:41:37;6.07;;;3.25;;
76373;SDS011;65197;50.164;8.012;2023-09-18T00:44:03;5.30;;;2.97;;
76373;SDS011;65197;50.164;8.012;2023-09-18T00:46:30;5.65;;;3.05;;
76373;SDS011;65197;50.164;8.012;2023-09-18T00:48:56;6.40;;;3.28;;
76373;SDS011;65197;50.164;8.012;2023-09-18T00:51:21;5.10;;;3.42;;
76373;SDS011;65197;50.164;8.012;2023-09-18T00:53:47;6.00;;;3.40;;
76373;SDS011;65197;50.164;8.012;2023-09-18T00:56:13;5.50;;;3.53;;
76373;SDS011;65197;50.164;8.012;2023-09-18T00:58:40;4.35;;;3.08;;
76373;SDS011;65197;50.164;8.012;2023-09-18T01:01:05;6.45;;;3.80;;
76373;SDS011;65197;50.164;8.012;2023-09-18T01:03:31;6.90;;;3.28;;
76373;SDS011;65197;50.164;8.012;2023-09-18T01:05:56;6.18;;;3.30;;
76373;SDS011;65197;50.164;8.012;2023-09-18T01:08:22;6.45;;;3.70;;
76373;SDS011;65197;50.164;8.012;2023-09-18T01:10:53;5.65;;;3.55;;
76373;SDS011;65197;50.164;8.012;2023-09-18T01:13:34;4.70;;;3.40;;
76373;SDS011;65197;50.164;8.012;2023-09-18T01:16:02;5.40;;;3.20;;
76373;SDS011;65197;50.164;8.012;2023-09-18T01:18:35;5.78;;;3.30;;
76373;SDS011;65197;50.164;8.012;2023-09-18T01:21:00;5.50;;;3.35;;
76373;SDS011;65197;50.164;8.012;2023-09-18T01:23:25;8.05;;;3.45;;
76373;SDS011;65197;50.164;8.012;2023-09-18T01:25:51;6.70;;;3.60;;
76373;SDS011;65197;50.164;8.012;2023-09-18T01:28:17;6.50;;;3.33;;
76373;SDS011;65197;50.164;8.012;2023-09-18T01:30:42;5.95;;;3.35;;
76373;SDS011;65197;50.164;8.012;2023-09-18T01:33:07;7.13;;;3.50;;
76373;SDS011;65197;50.164;8.012;2023-09-18T01:35:35;5.53;;;3.10;;
76373;SDS011;65197;50.164;8.012;2023-09-18T01:38:02;4.15;;;3.08;;
76373;SDS011;65197;50.164;8.012;2023-09-18T01:40:28;5.85;;;3.35;;
76373;SDS011;65197;50.164;8.012;2023-09-18T01:42:53;5.00;;;3.10;;
76373;SDS011;65197;50.164;8.012;2023-09-18T01:45:19;8.00;;;3.55;;
76373;SDS011;65197;50.164;8.012;2023-09-18T01:47:45;4.35;;;3.20;;
76373;SDS011;65197;50.164;8.012;2023-09-18T01:50:11;7.32;;;3.70;;
76373;SDS011;65197;50.164;8.012;2023-09-18T01:52:36;5.82;;;3.40;;
76373;SDS011;65197;50.164;8.012;2023-09-18T01:55:02;5.45;;;3.47;;
76373;SDS011;65197;50.164;8.012;2023-09-18T01:57:29;5.35;;;3.38;;
76373;SDS011;65197;50.164;8.012;2023-09-18T01:59:54;7.07;;;4.05;;
76373;SDS011;65197;50.164;8.012;2023-09-18T02:02:20;7.80;;;5.05;;
76373;SDS011;65197;50.164;8.012;2023-09-18T02:04:45;6.55;;;4.10;;
76373;SDS011;65197;50.164;8.012;2023-09-18T02:07:11;6.63;;;4.05;;
76373;SDS011;65197;50.164;8.012;2023-09-18T02:09:36;5.35;;;4.40;;
76373;SDS011;65197;50.164;8.012;2023-09-18T02:12:01;8.07;;;4.70;;
76373;SDS011;65197;50.164;8.012;2023-09-18T02:14:27;8.32;;;4.55;;
76373;SDS011;65197;50.164;8.012;2023-09-18T02:16:55;8.68;;;5.18;;
76373;SDS011;65197;50.164;8.012;2023-09-18T02:19:20;8.18;;;4.35;;
76373;SDS011;65197;50.164;8.012;2023-09-18T02:21:46;7.50;;;4.65;;
76373;SDS011;65197;50.164;8.012;2023-09-18T02:24:11;5.90;;;4.03;;
76373;SDS011;65197;50.164;8.012;2023-09-18T02:26:37;5.40;;;4.18;;
76373;SDS011;65197;50.164;8.012;2023-09-18T02:29:05;8.00;;;4.32;;
76373;SDS011;65197;50.164;8.012;2023-09-18T02:31:31;8.55;;;4.70;;
76373;SDS011;65197;50.164;8.012;2023-09-18T02:33:57;9.05;;;4.45;;
76373;SDS011;65197;50.164;8.012;2023-09-18T02:36:22;6.55;;;4.75;;
76373;SDS011;65197;50.164;8.012;2023-09-18T02:38:47;8.23;;;4.47;;
76373;SDS011;65197;50.164;8.012;2023-09-18T02:41:13;7.63;;;4.63;;
76373;SDS011;65197;50.164;8.012;2023-09-18T02:43:38;8.60;;;4.60;;
76373;SDS011;65197;50.164;8.012;2023-09-18T02:46:04;5.95;;;4.40;;
76373;SDS011;65197;50.164;8.012;2023-09-18T02:48:30;9.02;;;4.65;;
76373;SDS011;65197;50.164;8.012;2023-09-18T02:50:56;7.50;;;4.60;;
76373;SDS011;65197;50.164;8.012;2023-09-18T02:53:22;6.95;;;4.70;;
76373;SDS011;65197;50.164;8.012;2023-09-18T02:55:52;6.80;;;4.35;;
76373;SDS011;65197;50.164;8.012;2023-09-18T02:58:18;5.43;;;4.18;;
76373;SDS011;65197;50.164;8.012;2023-09-18T03:00:45;7.50;;;4.35;;
76373;SDS011;65197;50.164;8.012;2023-09-18T03:03:11;7.70;;;4.57;;
76373;SDS011;65197;50.164;8.012;2023-09-18T03:05:37;6.18;;;4.00;;
76373;SDS011;65197;50.164;8.012;2023-09-18T03:08:03;8.25;;;4.80;;
76373;SDS011;65197;50.164;8.012;2023-09-18T03:10:33;5.97;;;4.25;;
76373;SDS011;65197;50.164;8.012;2023-09-18T03:12:59;8.85;;;4.68;;
76373;SDS011;65197;50.164;8.012;2023-09-18T03:15:25;7.63;;;4.28;;
76373;SDS011;65197;50.164;8.012;2023-09-18T03:17:50;7.35;;;4.50;;
76373;SDS011;65197;50.164;8.012;2023-09-18T03:20:16;7.15;;;4.10;;
76373;SDS011;65197;50.164;8.012;2023-09-18T03:22:41;8.13;;;4.30;;
76373;SDS011;65197;50.164;8.012;2023-09-18T03:25:06;8.93;;;4.20;;
76373;SDS011;65197;50.164;8.012;2023-09-18T03:27:32;6.93;;;4.43;;
76373;SDS011;65197;50.164;8.012;2023-09-18T03:29:58;10.32;;;5.32;;
76373;SDS011;65197;50.164;8.012;2023-09-18T03:32:23;7.35;;;4.03;;
76373;SDS011;65197;50.164;8.012;2023-09-18T03:34:52;7.97;;;4.25;;
76373;SDS011;65197;50.164;8.012;2023-09-18T03:37:18;8.25;;;4.35;;
76373;SDS011;65197;50.164;8.012;2023-09-18T03:39:43;7.70;;;4.65;;
76373;SDS011;65197;50.164;8.012;2023-09-18T03:42:08;7.15;;;4.18;;
76373;SDS011;65197;50.164;8.012;2023-09-18T03:44:34;7.63;;;4.50;;
76373;SDS011;65197;50.164;8.012;2023-09-18T03:46:59;9.68;;;4.72;;
76373;SDS011;65197;50.164;8.012;2023-09-18T03:49:25;7.93;;;4.32;;
76373;SDS011;65197;50.164;8.012;2023-09-18T03:51:52;7.95;;;4.63;;
76373;SDS011;65197;50.164;8.012;2023-09-18T03:54:17;8.35;;;5.10;;
76373;SDS011;65197;50.164;8.012;2023-09-18T03:56:43;6.85;;;4.82;;
76373;SDS011;65197;50.164;8.012;2023-09-18T03:59:08;8.85;;;4.40;;
76373;SDS011;65197;50.164;8.012;2023-09-18T04:01:33;8.80;;;4.53;;
76373;SDS011;65197;50.164;8.012;2023-09-18T04:03:59;8.10;;;4.75;;
76373;SDS011;65197;50.164;8.012;2023-09-18T04:06:25;9.52;;;4.57;;
76373;SDS011;65197;50.164;8.012;2023-09-18T04:09:00;7.47;;;4.60;;
76373;SDS011;65197;50.164;8.012;2023-09-18T04:11:26;6.72;;;4.07;;
76373;SDS011;65197;50.164;8.012;2023-09-18T04:13:51;9.80;;;5.57;;
76373;SDS011;65197;50.164;8.012;2023-09-18T04:16:16;9.38;;;4.80;;
76373;SDS011;65197;50.164;8.012;2023-09-18T04:18:42;10.25;;;4.40;;
76373;SDS011;65197;50.164;8.012;2023-09-18T04:21:08;9.82;;;4.68;;
76373;SDS011;65197;50.164;8.012;2023-09-18T04:23:35;9.95;;;4.68;;
76373;SDS011;65197;50.164;8.012;2023-09-18T04:26:01;9.25;;;5.40;;
76373;SDS011;65197;50.164;8.012;2023-09-18T04:28:27;8.65;;;4.30;;
76373;SDS011;65197;50.164;8.012;2023-09-18T04:30:52;7.63;;;4.63;;
76373;SDS011;65197;50.164;8.012;2023-09-18T04:33:18;10.98;;;4.60;;
76373;SDS011;65197;50.164;8.012;2023-09-18T04:35:43;8.35;;;4.78;;
76373;SDS011;65197;50.164;8.012;2023-09-18T04:38:09;12.85;;;4.72;;
76373;SDS011;65197;50.164;8.012;2023-09-18T04:40:39;10.35;;;4.30;;
76373;SDS011;65197;50.164;8.012;2023-09-18T04:43:04;12.07;;;4.50;;
76373;SDS011;65197;50.164;8.012;2023-09-18T04:45:30;11.95;;;4.57;;
76373;SDS011;65197;50.164;8.012;2023-09-18T04:47:56;10.82;;;4.28;;
76373;SDS011;65197;50.164;8.012;2023-09-18T04:50:21;12.15;;;4.30;;
76373;SDS011;65197;50.164;8.012;2023-09-18T04:52:47;7.45;;;3.70;;
76373;SDS011;65197;50.164;8.012;2023-09-18T04:55:13;10.77;;;4.32;;
76373;SDS011;65197;50.164;8.012;2023-09-18T04:57:38;9.25;;;4.07;;
76373;SDS011;65197;50.164;8.012;2023-09-18T05:00:04;11.50;;;4.18;;
76373;SDS011;65197;50.164;8.012;2023-09-18T05:02:38;10.93;;;4.40;;
76373;SDS011;65197;50.164;8.012;2023-09-18T05:05:04;8.90;;;3.90;;
76373;SDS011;65197;50.164;8.012;2023-09-18T05:07:30;10.15;;;3.85;;
76373;SDS011;65197;50.164;8.012;2023-09-18T05:09:56;10.80;;;4.28;;
76373;SDS011;65197;50.164;8.012;2023-09-18T05:12:21;14.30;;;4.30;;
76373;SDS011;65197;50.164;8.012;2023-09-18T05:14:48;11.32;;;4.00;;
76373;SDS011;65197;50.164;8.012;2023-09-18T05:17:16;12.05;;;4.50;;
76373;SDS011;65197;50.164;8.012;2023-09-18T05:19:45;13.20;;;4.70;;
76373;SDS011;65197;50.164;8.012;2023-09-18T05:22:10;11.75;;;4.40;;
76373;SDS011;65197;50.164;8.012;2023-09-18T05:24:37;11.48;;;4.63;;
76373;SDS011;65197;50.164;8.012;2023-09-18T05:27:03;11.68;;;4.20;;
76373;SDS011;65197;50.164;8.012;2023-09-18T05:29:31;7.35;;;3.80;;
76373;SDS011;65197;50.164;8.012;2023-09-18T05:31:56;7.97;;;4.07;;
76373;SDS011;65197;50.164;8.012;2023-09-18T05:34:22;14.48;;;4.55;;
76373;SDS011;65197;50.164;8.012;2023-09-18T05:36:47;12.25;;;4.30;;
76373;SDS011;65197;50.164;8.012;2023-09-18T05:39:13;10.48;;;4.70;;
76373;SDS011;65197;50.164;8.012;2023-09-18T05:41:39;12.77;;;4.28;;
76373;SDS011;65197;50.164;8.012;2023-09-18T05:44:05;9.05;;;4.40;;
76373;SDS011;65197;50.164;8.012;2023-09-18T05:46:33;9.82;;;4.50;;
76373;SDS011;65197;50.164;8.012;2023-09-18T05:48:59;10.98;;;4.45;;
76373;SDS011;65197;50.164;8.012;2023-09-18T05:51:25;15.90;;;4.78;;
76373;SDS011;65197;50.164;8.012;2023-09-18T05:53:52;12.63;;;4.70;;
76373;SDS011;65197;50.164;8.012;2023-09-18T05:56:18;10.45;;;4.10;;
76373;SDS011;65197;50.164;8.012;2023-09-18T05:58:43;6.30;;;3.42;;
76373;SDS011;65197;50.164;8.012;2023-09-18T06:01:09;11.75;;;3.92;;
76373;SDS011;65197;50.164;8.012;2023-09-18T06:03:34;9.02;;;4.00;;
76373;SDS011;65197;50.164;8.012;2023-09-18T06:06:01;9.15;;;4.07;;
76373;SDS011;65197;50.164;8.012;2023-09-18T06:08:35;9.98;;;4.03;;
76373;SDS011;65197;50.164;8.012;2023-09-18T06:11:01;8.32;;;4.00;;
76373;SDS011;65197;50.164;8.012;2023-09-18T06:13:26;8.75;;;3.55;;
76373;SDS011;65197;50.164;8.012;2023-09-18T06:15:53;11.90;;;3.55;;
76373;SDS011;65197;50.164;8.012;2023-09-18T06:18:20;8.18;;;4.00;;
76373;SDS011;65197;50.164;8.012;2023-09-18T06:20:46;9.40;;;4.13;;
76373;SDS011;65197;50.164;8.012;2023-09-18T06:23:12;10.25;;;4.20;;
76373;SDS011;65197;50.164;8.012;2023-09-18T06:25:38;11.02;;;3.88;;
76373;SDS011;65197;50.164;8.012;2023-09-18T06:28:04;11.13;;;3.97;;
76373;SDS011;65197;50.164;8.012;2023-09-18T06:30:30;8.70;;;3.42;;
76373;SDS011;65197;50.164;8.012;2023-09-18T06:32:56;7.70;;;3.33;;
76373;SDS011;65197;50.164;8.012;2023-09-18T06:35:21;8.25;;;3.35;;
76373;SDS011;65197;50.164;8.012;2023-09-18T06:37:47;8.93;;;3.55;;
76373;SDS011;65197;50.164;8.012;2023-09-18T06:40:13;7.18;;;3.03;;
76373;SDS011;65197;50.164;8.012;2023-09-18T06:42:38;9.02;;;2.97;;
76373;SDS011;65197;50.164;8.012;2023-09-18T06:45:04;8.27;;;3.20;;
76373;SDS011;65197;50.164;8.012;2023-09-18T06:47:32;8.50;;;2.92;;
76373;SDS011;65197;50.164;8.012;2023-09-18T06:49:58;9.10;;;3.03;;
76373;SDS011;65197;50.164;8.012;2023-09-18T06:52:25;8.95;;;2.60;;
76373;SDS011;65197;50.164;8.012;2023-09-18T06:54:51;6.70;;;2.50;;
76373;SDS011;65197;50.164;8.012;2023-09-18T06:57:17;5.72;;;2.53;;
76373;SDS011;65197;50.164;8.012;2023-09-18T06:59:42;6.57;;;2.60;;
76373;SDS011;65197;50.164;8.012;2023-09-18T07:02:08;6.72;;;2.83;;
76373;SDS011;65197;50.164;8.012;2023-09-18T07:04:33;7.90;;;2.75;;
76373;SDS011;65197;50.164;8.012;2023-09-18T07:06:59;7.22;;;2.70;;
76373;SDS011;65197;50.164;8.012;2023-09-18T07:09:24;6.40;;;3.08;;
76373;SDS011;65197;50.164;8.012;2023-09-18T07:11:51;8.20;;;2.80;;
76373;SDS011;65197;50.164;8.012;2023-09-18T07:14:16;7.43;;;2.75;;
76373;SDS011;65197;50.164;8.012;2023-09-18T07:16:43;9.55;;;2.65;;
76373;SDS011;65197;50.164;8.012;2023-09-18T07:19:08;5.88;;;2.58;;
76373;SDS011;65197;50.164;8.012;2023-09-18T07:21:36;9.18;;;2.88;;
76373;SDS011;65197;50.164;8.012;2023-09-18T07:24:03;7.68;;;2.78;;
76373;SDS011;65197;50.164;8.012;2023-09-18T07:26:28;6.55;;;2.80;;
76373;SDS011;65197;50.164;8.012;2023-09-18T07:28:54;7.65;;;3.05;;
76373;SDS011;65197;50.164;8.012;2023-09-18T07:31:19;8.68;;;2.80;;
76373;SDS011;65197;50.164;8.012;2023-09-18T07:33:44;6.55;;;2.70;;
76373;SDS011;65197;50.164;8.012;2023-09-18T07:36:10;8.52;;;2.65;;
76373;SDS011;65197;50.164;8.012;2023-09-18T07:38:35;8.02;;;2.60;;
76373;SDS011;65197;50.164;8.012;2023-09-18T07:41:02;7.90;;;2.72;;
76373;SDS011;65197;50.164;8.012;2023-09-18T07:43:28;5.53;;;2.55;;
76373;SDS011;65197;50.164;8.012;2023-09-18T07:45:53;6.35;;;2.60;;
76373;SDS011;65197;50.164;8.012;2023-09-18T07:48:19;6.32;;;2.33;;
76373;SDS011;65197;50.164;8.012;2023-09-18T07:50:45;7.68;;;2.53;;
76373;SDS011;65197;50.164;8.012;2023-09-18T07:53:11;5.10;;;2.35;;
76373;SDS011;65197;50.164;8.012;2023-09-18T07:55:37;8.05;;;2.60;;
76373;SDS011;65197;50.164;8.012;2023-09-18T07:58:02;4.88;;;2.60;;
76373;SDS011;65197;50.164;8.012;2023-09-18T08:00:29;5.05;;;2.03;;
76373;SDS011;65197;50.164;8.012;2023-09-18T08:02:55;4.80;;;2.30;;
76373;SDS011;65197;50.164;8.012;2023-09-18T08:05:26;8.95;;;2.45;;
76373;SDS011;65197;50.164;8.012;2023-09-18T08:07:56;8.25;;;2.60;;
76373;SDS011;65197;50.164;8.012;2023-09-18T08:10:22;4.25;;;2.67;;
76373;SDS011;65197;50.164;8.012;2023-09-18T08:12:48;6.63;;;2.47;;
76373;SDS011;65197;50.164;8.012;2023-09-18T08:15:16;5.25;;;2.30;;
76373;SDS011;65197;50.164;8.012;2023-09-18T08:17:42;6.65;;;2.42;;
76373;SDS011;65197;50.164;8.012;2023-09-18T08:20:07;6.13;;;2.35;;
76373;SDS011;65197;50.164;8.012;2023-09-18T08:22:38;5.35;;;2.28;;
76373;SDS011;65197;50.164;8.012;2023-09-18T08:25:03;6.63;;;2.30;;
76373;SDS011;65197;50.164;8.012;2023-09-18T08:27:30;6.55;;;2.42;;
76373;SDS011;65197;50.164;8.012;2023-09-18T08:29:55;4.05;;;2.30;;
76373;SDS011;65197;50.164;8.012;2023-09-18T08:32:21;6.68;;;2.55;;
76373;SDS011;65197;50.164;8.012;2023-09-18T08:34:46;4.95;;;2.50;;
76373;SDS011;65197;50.164;8.012;2023-09-18T08:37:12;6.18;;;2.80;;
76373;SDS011;65197;50.164;8.012;2023-09-18T08:39:38;5.03;;;2.55;;
76373;SDS011;65197;50.164;8.012;2023-09-18T08:42:04;3.97;;;2.53;;
76373;SDS011;65197;50.164;8.012;2023-09-18T08:44:32;5.95;;;3.25;;
76373;SDS011;65197;50.164;8.012;2023-09-18T08:46:57;6.03;;;2.70;;
76373;SDS011;65197;50.164;8.012;2023-09-18T08:49:23;6.75;;;2.85;;
76373;SDS011;65197;50.164;8.012;2023-09-18T08:51:53;5.93;;;2.70;;
76373;SDS011;65197;50.164;8.012;2023-09-18T08:54:20;5.15;;;2.70;;
76373;SDS011;65197;50.164;8.012;2023-09-18T08:56:48;4.30;;;2.90;;
76373;SDS011;65197;50.164;8.012;2023-09-18T08:59:14;10.27;;;3.75;;
76373;SDS011;65197;50.164;8.012;2023-09-18T09:01:40;6.15;;;2.90;;
76373;SDS011;65197;50.164;8.012;2023-09-18T09:04:05;6.45;;;2.85;;
76373;SDS011;65197;50.164;8.012;2023-09-18T09:06:30;3.33;;;2.67;;
76373;SDS011;65197;50.164;8.012;2023-09-18T09:08:56;6.82;;;3.35;;
76373;SDS011;65197;50.164;8.012;2023-09-18T09:11:21;6.78;;;3.28;;
76373;SDS011;65197;50.164;8.012;2023-09-18T09:13:47;3.60;;;2.55;;
76373;SDS011;65197;50.164;8.012;2023-09-18T09:16:13;4.35;;;3.03;;
76373;SDS011;65197;50.164;8.012;2023-09-18T09:18:48;8.23;;;3.42;;
76373;SDS011;65197;50.164;8.012;2023-09-18T09:21:14;6.53;;;3.35;;
76373;SDS011;65197;50.164;8.012;2023-09-18T09:23:48;6.20;;;2.80;;
76373;SDS011;65197;50.164;8.012;2023-09-18T09:26:18;5.50;;;3.22;;
76373;SDS011;65197;50.164;8.012;2023-09-18T09:28:45;7.43;;;3.05;;
76373;SDS011;65197;50.164;8.012;2023-09-18T09:31:15;5.72;;;3.33;;
76373;SDS011;65197;50.164;8.012;2023-09-18T09:33:50;5.00;;;3.50;;
76373;SDS011;65197;50.164;8.012;2023-09-18T09:36:18;5.38;;;3.95;;
76373;SDS011;65197;50.164;8.012;2023-09-18T09:38:44;6.80;;;3.25;;
76373;SDS011;65197;50.164;8.012;2023-09-18T09:41:13;4.97;;;3.60;;
76373;SDS011;65197;50.164;8.012;2023-09-18T09:43:39;5.53;;;4.03;;
76373;SDS011;65197;50.164;8.012;2023-09-18T09:46:07;5.53;;;3.42;;
76373;SDS011;65197;50.164;8.012;2023-09-18T09:51:24;5.80;;;3.83;;
76373;SDS011;65197;50.164;8.012;2023-09-18T09:53:49;5.43;;;3.80;;
76373;SDS011;65197;50.164;8.012;2023-09-18T09:56:16;5.95;;;4.00;;
76373;SDS011;65197;50.164;8.012;2023-09-18T09:59:08;6.22;;;3.90;;
76373;SDS011;65197;50.164;8.012;2023-09-18T10:01:33;8.60;;;4.32;;
76373;SDS011;65197;50.164;8.012;2023-09-18T10:03:59;6.15;;;3.83;;
76373;SDS011;65197;50.164;8.012;2023-09-18T10:07:05;6.20;;;3.67;;
76373;SDS011;65197;50.164;8.012;2023-09-18T10:09:32;7.45;;;4.10;;
76373;SDS011;65197;50.164;8.012;2023-09-18T10:12:00;5.18;;;4.07;;
76373;SDS011;65197;50.164;8.012;2023-09-18T10:14:30;7.47;;;4.40;;
76373;SDS011;65197;50.164;8.012;2023-09-18T10:16:57;6.88;;;4.47;;
76373;SDS011;65197;50.164;8.012;2023-09-18T10:19:27;7.07;;;4.18;;
76373;SDS011;65197;50.164;8.012;2023-09-18T10:25:15;10.35;;;5.57;;
76373;SDS011;65197;50.164;8.012;2023-09-18T10:27:45;6.20;;;4.68;;
76373;SDS011;65197;50.164;8.012;2023-09-18T10:30:14;8.05;;;5.30;;
76373;SDS011;65197;50.164;8.012;2023-09-18T10:32:43;5.50;;;4.50;;
76373;SDS011;65197;50.164;8.012;2023-09-18T10:35:11;8.75;;;5.00;;
76373;SDS011;65197;50.164;8.012;2023-09-18T10:37:37;6.57;;;4.90;;
76373;SDS011;65197;50.164;8.012;2023-09-18T10:40:05;7.47;;;4.80;;
76373;SDS011;65197;50.164;8.012;2023-09-18T10:42:33;8.05;;;4.90;;
76373;SDS011;65197;50.164;8.012;2023-09-18T10:45:00;7.00;;;5.25;;
76373;SDS011;65197;50.164;8.012;2023-09-18T10:47:29;7.43;;;5.22;;
76373;SDS011;65197;50.164;8.012;2023-09-18T10:49:55;6.90;;;5.25;;
76373;SDS011;65197;50.164;8.012;2023-09-18T10:52:21;5.30;;;4.80;;
76373;SDS011;65197;50.164;8.012;2023-09-18T10:54:46;7.28;;;5.40;;
76373;SDS011;65197;50.164;8.012;2023-09-18T10:57:12;6.03;;;4.80;;
76373;SDS011;65197;50.164;8.012;2023-09-18T10:59:44;9.52;;;6.13;;
76373;SDS011;65197;50.164;8.012;2023-09-18T11:02:13;7.53;;;5.60;;
76373;SDS011;65197;50.164;8.012;2023-09-18T11:04:40;8.32;;;5.70;;
76373;SDS011;65197;50.164;8.012;2023-09-18T11:07:07;7.50;;;5.43;;
76373;SDS011;65197;50.164;8.012;2023-09-18T11:09:41;8.38;;;5.25;;
76373;SDS011;65197;50.164;8.012;2023-09-18T11:12:11;6.28;;;4.85;;
76373;SDS011;65197;50.164;8.012;2023-09-18T11:14:49;6.60;;;5.85;;
76373;SDS011;65197;50.164;8.012;2023-09-18T11:17:28;6.25;;;4.65;;
76373;SDS011;65197;50.164;8.012;2023-09-18T11:22:34;6.20;;;5.25;;
76373;SDS011;65197;50.164;8.012;2023-09-18T11:28:22;5.93;;;4.82;;
76373;SDS011;65197;50.164;8.012;2023-09-18T11:30:54;5.15;;;4.45;;
76373;SDS011;65197;50.164;8.012;2023-09-18T11:33:31;5.80;;;4.32;;
76373;SDS011;65197;50.164;8.012;2023-09-18T11:36:11;6.10;;;4.30;;
76373;SDS011;65197;50.164;8.012;2023-09-18T11:38:55;8.43;;;4.25;;
76373;SDS011;65197;50.164;8.012;2023-09-18T11:41:28;4.93;;;4.05;;
76373;SDS011;65197;50.164;8.012;2023-09-18T11:46:35;6.72;;;4.25;;
76373;SDS011;65197;50.164;8.012;2023-09-18T11:49:04;6.65;;;4.07;;
76373;SDS011;65197;50.164;8.012;2023-09-18T11:51:35;5.38;;;4.10;;
76373;SDS011;65197;50.164;8.012;2023-09-18T11:54:01;6.22;;;3.45;;
76373;SDS011;65197;50.164;8.012;2023-09-18T11:56:28;5.00;;;3.78;;
76373;SDS011;65197;50.164;8.012;2023-09-18T11:58:54;5.63;;;3.90;;
76373;SDS011;65197;50.164;8.012;2023-09-18T12:01:20;5.10;;;3.85;;
76373;SDS011;65197;50.164;8.012;2023-09-18T12:03:52;6.07;;;4.25;;
76373;SDS011;65197;50.164;8.012;2023-09-18T12:06:25;5.13;;;4.05;;
76373;SDS011;65197;50.164;8.012;2023-09-18T12:08:51;5.28;;;3.67;;
76373;SDS011;65197;50.164;8.012;2023-09-18T12:11:17;5.95;;;4.15;;
76373;SDS011;65197;50.164;8.012;2023-09-18T12:13:44;5.53;;;4.18;;
76373;SDS011;65197;50.164;8.012;2023-09-18T12:16:16;4.93;;;3.78;;
76373;SDS011;65197;50.164;8.012;2023-09-18T12:18:44;5.18;;;4.43;;
76373;SDS011;65197;50.164;8.012;2023-09-18T12:21:13;4.65;;;4.25;;
76373;SDS011;65197;50.164;8.012;2023-09-18T12:23:40;4.97;;;4.15;;
76373;SDS011;65197;50.164;8.012;2023-09-18T12:26:09;5.90;;;4.57;;
76373;SDS011;65197;50.164;8.012;2023-09-18T12:28:38;5.63;;;4.40;;
76373;SDS011;65197;50.164;8.012;2023-09-18T12:31:04;6.43;;;4.25;;
76373;SDS011;65197;50.164;8.012;2023-09-18T12:33:33;6.32;;;4.72;;
76373;SDS011;65197;50.164;8.012;2023-09-18T12:35:59;5.25;;;4.22;;
76373;SDS011;65197;50.164;8.012;2023-09-18T12:38:24;5.03;;;4.38;;
76373;SDS011;65197;50.164;8.012;2023-09-18T12:40:54;6.47;;;5.25;;
76373;SDS011;65197;50.164;8.012;2023-09-18T12:43:20;6.47;;;5.00;;
76373;SDS011;65197;50.164;8.012;2023-09-18T12:45:47;6.72;;;5.28;;
76373;SDS011;65197;50.164;8.012;2023-09-18T12:48:14;5.95;;;4.95;;
76373;SDS011;65197;50.164;8.012;2023-09-18T12:50:39;8.90;;;5.20;;
76373;SDS011;65197;50.164;8.012;2023-09-18T12:53:08;5.53;;;4.82;;
76373;SDS011;65197;50.164;8.012;2023-09-18T12:55:34;6.50;;;4.90;;
76373;SDS011;65197;50.164;8.012;2023-09-18T12:58:00;6.72;;;5.47;;
76373;SDS011;65197;50.164;8.012;2023-09-18T13:00:30;6.47;;;4.78;;
76373;SDS011;65197;50.164;8.012;2023-09-18T13:02:56;6.80;;;4.97;;
76373;SDS011;65197;50.164;8.012;2023-09-18T13:05:22;5.55;;;4.75;;
76373;SDS011;65197;50.164;8.012;2023-09-18T13:07:51;6.70;;;5.18;;
76373;SDS011;65197;50.164;8.012;2023-09-18T13:10:18;9.45;;;5.10;;
76373;SDS011;65197;50.164;8.012;2023-09-18T13:12:47;6.57;;;4.78;;
76373;SDS011;65197;50.164;8.012;2023-09-18T13:15:23;5.70;;;4.35;;
76373;SDS011;65197;50.164;8.012;2023-09-18T13:17:55;5.57;;;4.35;;
76373;SDS011;65197;50.164;8.012;2023-09-18T13:20:24;5.60;;;4.40;;
76373;SDS011;65197;50.164;8.012;2023-09-18T13:22:54;5.07;;;4.30;;
76373;SDS011;65197;50.164;8.012;2023-09-18T13:25:22;8.40;;;4.18;;
76373;SDS011;65197;50.164;8.012;2023-09-18T13:27:49;5.65;;;4.32;;
76373;SDS011;65197;50.164;8.012;2023-09-18T13:30:15;3.92;;;3.40;;
76373;SDS011;65197;50.164;8.012;2023-09-18T13:32:43;5.18;;;4.00;;
76373;SDS011;65197;50.164;8.012;2023-09-18T13:35:10;5.45;;;4.10;;
76373;SDS011;65197;50.164;8.012;2023-09-18T13:37:38;4.63;;;3.60;;
76373;SDS011;65197;50.164;8.012;2023-09-18T13:40:04;5.75;;;3.95;;
76373;SDS011;65197;50.164;8.012;2023-09-18T13:42:33;6.97;;;3.63;;
76373;SDS011;65197;50.164;8.012;2023-09-18T13:44:59;7.85;;;3.88;;
76373;SDS011;65197;50.164;8.012;2023-09-18T13:50:00;4.30;;;3.08;;
76373;SDS011;65197;50.164;8.012;2023-09-18T13:52:26;3.83;;;3.08;;
76373;SDS011;65197;50.164;8.012;2023-09-18T13:54:52;4.43;;;2.60;;
76373;SDS011;65197;50.164;8.012;2023-09-18T13:57:18;4.93;;;2.47;;
76373;SDS011;65197;50.164;8.012;2023-09-18T13:59:44;4.70;;;2.33;;
76373;SDS011;65197;50.164;8.012;2023-09-18T14:02:11;6.53;;;2.42;;
76373;SDS011;65197;50.164;8.012;2023-09-18T14:04:36;4.93;;;2.35;;
76373;SDS011;65197;50.164;8.012;2023-09-18T14:07:02;3.35;;;2.40;;
76373;SDS011;65197;50.164;8.012;2023-09-18T14:09:28;3.03;;;2.35;;
76373;SDS011;65197;50.164;8.012;2023-09-18T14:11:53;4.00;;;2.70;;
76373;SDS011;65197;50.164;8.012;2023-09-18T14:14:19;3.95;;;2.60;;
76373;SDS011;65197;50.164;8.012;2023-09-18T14:16:46;4.57;;;2.40;;
76373;SDS011;65197;50.164;8.012;2023-09-18T14:19:12;5.05;;;2.70;;
76373;SDS011;65197;50.164;8.012;2023-09-18T14:21:37;3.60;;;2.25;;
76373;SDS011;65197;50.164;8.012;2023-09-18T14:24:04;4.85;;;2.80;;
76373;SDS011;65197;50.164;8.012;2023-09-18T14:26:30;3.83;;;2.20;;
76373;SDS011;65197;50.164;8.012;2023-09-18T14:28:55;4.03;;;2.65;;
76373;SDS011;65197;50.164;8.012;2023-09-18T14:31:20;4.13;;;2.38;;
76373;SDS011;65197;50.164;8.012;2023-09-18T14:33:46;3.95;;;2.75;;
76373;SDS011;65197;50.164;8.012;2023-09-18T14:36:11;4.85;;;2.40;;
76373;SDS011;65197;50.164;8.012;2023-09-18T14:38:37;4.00;;;2.50;;
76373;SDS011;65197;50.164;8.012;2023-09-18T14:41:03;4.20;;;2.53;;
76373;SDS011;65197;50.164;8.012;2023-09-18T14:43:28;4.35;;;2.95;;
76373;SDS011;65197;50.164;8.012;2023-09-18T14:45:54;4.22;;;2.50;;
76373;SDS011;65197;50.164;8.012;2023-09-18T14:48:23;3.95;;;2.70;;
76373;SDS011;65197;50.164;8.012;2023-09-18T14:50:55;4.05;;;2.40;;
76373;SDS011;65197;50.164;8.012;2023-09-18T14:53:20;4.80;;;2.72;;
76373;SDS011;65197;50.164;8.012;2023-09-18T14:55:46;3.88;;;2.53;;
76373;SDS011;65197;50.164;8.012;2023-09-18T14:58:12;3.88;;;2.60;;
76373;SDS011;65197;50.164;8.012;2023-09-18T15:00:37;8.32;;;3.33;;